sensor_id;sensor_type;location;lat;lon;timestamp;pressure;altitude;pressure_sealevel;temperature;humidity
9035;BME280;4552;43.422;24.592;2022-07-01T00:00:34;99659.56;;;22.72;71.98
9035;BME280;4552;43.422;24.592;2022-07-01T00:03:01;99648.72;;;23.13;70.84
9035;BME280;4552;43.422;24.592;2022-07-01T00:05:29;99638.06;;;23.25;69.97
9035;BME280;4552;43.422;24.592;2022-07-01T00:07:56;99627.97;;;22.91;71.14
9035;BME280;4552;43.422;24.592;2022-07-01T00:10:23;99614.00;;;22.75;71.64
9035;BME280;4552;43.422;24.592;2022-07-01T00:12:52;99637.91;;;23.02;71.22
9035;BME280;4552;43.422;24.592;2022-07-01T00:15:20;99626.09;;;23.06;70.98
9035;BME280;4552;43.422;24.592;2022-07-01T00:17:47;99644.03;;;23.41;69.27
9035;BME280;4552;43.422;24.592;2022-07-01T00:20:14;99644.69;;;23.20;70.33
9035;BME280;4552;43.422;24.592;2022-07-01T00:22:41;99636.34;;;23.12;70.79
9035;BME280;4552;43.422;24.592;2022-07-01T00:25:09;99615.28;;;23.07;70.37
9035;BME280;4552;43.422;24.592;2022-07-01T00:27:37;99623.09;;;22.98;70.67
9035;BME280;4552;43.422;24.592;2022-07-01T00:30:07;99627.13;;;23.03;70.89
9035;BME280;4552;43.422;24.592;2022-07-01T00:32:35;99647.66;;;23.03;72.12
9035;BME280;4552;43.422;24.592;2022-07-01T00:35:03;99625.84;;;22.96;71.52
9035;BME280;4552;43.422;24.592;2022-07-01T00:37:30;99640.59;;;22.77;72.92
9035;BME280;4552;43.422;24.592;2022-07-01T00:39:57;99631.25;;;22.57;74.71
9035;BME280;4552;43.422;24.592;2022-07-01T00:42:24;99636.50;;;22.71;73.62
9035;BME280;4552;43.422;24.592;2022-07-01T00:44:51;99606.81;;;22.63;74.32
9035;BME280;4552;43.422;24.592;2022-07-01T00:47:20;99609.91;;;22.57;73.88
9035;BME280;4552;43.422;24.592;2022-07-01T00:49:47;99638.44;;;22.69;75.28
9035;BME280;4552;43.422;24.592;2022-07-01T00:52:15;99616.56;;;22.50;74.38
9035;BME280;4552;43.422;24.592;2022-07-01T00:54:42;99617.81;;;22.59;74.24
9035;BME280;4552;43.422;24.592;2022-07-01T00:57:11;99646.34;;;22.71;74.50
9035;BME280;4552;43.422;24.592;2022-07-01T00:59:39;99636.38;;;22.73;73.56
9035;BME280;4552;43.422;24.592;2022-07-01T01:02:07;99634.56;;;22.34;75.30
9035;BME280;4552;43.422;24.592;2022-07-01T01:04:36;99610.25;;;22.12;76.38
9035;BME280;4552;43.422;24.592;2022-07-01T01:07:03;99622.06;;;22.61;74.29
9035;BME280;4552;43.422;24.592;2022-07-01T01:09:30;99633.28;;;22.40;75.25
9035;BME280;4552;43.422;24.592;2022-07-01T01:11:58;99621.53;;;22.30;75.15
9035;BME280;4552;43.422;24.592;2022-07-01T01:14:25;99601.56;;;21.96;76.86
9035;BME280;4552;43.422;24.592;2022-07-01T01:16:52;99631.22;;;22.04;77.45
9035;BME280;4552;43.422;24.592;2022-07-01T01:19:20;99622.34;;;21.91;77.84
9035;BME280;4552;43.422;24.592;2022-07-01T01:21:50;99618.94;;;21.61;79.39
9035;BME280;4552;43.422;24.592;2022-07-01T01:24:18;99614.06;;;21.67;79.30
9035;BME280;4552;43.422;24.592;2022-07-01T01:26:45;99636.44;;;21.65;79.84
9035;BME280;4552;43.422;24.592;2022-07-01T01:29:12;99632.66;;;21.41;80.46
9035;BME280;4552;43.422;24.592;2022-07-01T01:31:40;99647.78;;;21.40;80.96
9035;BME280;4552;43.422;24.592;2022-07-01T01:34:07;99658.81;;;21.48;81.88
9035;BME280;4552;43.422;24.592;2022-07-01T01:36:35;99638.81;;;21.69;79.62
9035;BME280;4552;43.422;24.592;2022-07-01T01:39:04;99631.31;;;21.62;79.39
9035;BME280;4552;43.422;24.592;2022-07-01T01:41:35;99644.06;;;21.43;80.58
9035;BME280;4552;43.422;24.592;2022-07-01T01:44:02;99643.50;;;21.24;81.81
9035;BME280;4552;43.422;24.592;2022-07-01T01:46:29;99664.44;;;21.44;80.86
9035;BME280;4552;43.422;24.592;2022-07-01T01:48:56;99640.16;;;21.20;81.45
9035;BME280;4552;43.422;24.592;2022-07-01T01:51:25;99644.34;;;21.10;82.20
9035;BME280;4552;43.422;24.592;2022-07-01T01:53:52;99672.59;;;21.27;82.08
9035;BME280;4552;43.422;24.592;2022-07-01T01:56:21;99657.69;;;21.24;81.60
9035;BME280;4552;43.422;24.592;2022-07-01T01:58:48;99674.88;;;21.33;81.22
9035;BME280;4552;43.422;24.592;2022-07-01T02:01:16;99643.09;;;21.02;82.60
9035;BME280;4552;43.422;24.592;2022-07-01T02:03:46;99674.59;;;21.51;81.21
9035;BME280;4552;43.422;24.592;2022-07-01T02:06:14;99673.72;;;21.37;81.95
9035;BME280;4552;43.422;24.592;2022-07-01T02:08:42;99672.41;;;21.30;81.73
9035;BME280;4552;43.422;24.592;2022-07-01T02:11:09;99673.31;;;21.01;82.65
9035;BME280;4552;43.422;24.592;2022-07-01T02:13:38;99682.81;;;21.05;83.17
9035;BME280;4552;43.422;24.592;2022-07-01T02:16:05;99689.50;;;21.12;82.87
9035;BME280;4552;43.422;24.592;2022-07-01T02:18:32;99693.22;;;21.23;81.96
9035;BME280;4552;43.422;24.592;2022-07-01T02:20:59;99685.03;;;21.12;82.07
9035;BME280;4552;43.422;24.592;2022-07-01T02:23:26;99685.97;;;21.11;81.98
9035;BME280;4552;43.422;24.592;2022-07-01T02:25:54;99699.16;;;20.99;82.73
9035;BME280;4552;43.422;24.592;2022-07-01T02:28:22;99704.19;;;20.89;83.65
9035;BME280;4552;43.422;24.592;2022-07-01T02:30:51;99690.00;;;20.89;82.56
9035;BME280;4552;43.422;24.592;2022-07-01T02:33:18;99684.66;;;21.04;82.94
9035;BME280;4552;43.422;24.592;2022-07-01T02:35:45;99700.66;;;20.89;83.46
9035;BME280;4552;43.422;24.592;2022-07-01T02:38:12;99696.63;;;20.82;84.16
9035;BME280;4552;43.422;24.592;2022-07-01T02:40:39;99718.13;;;20.93;83.49
9035;BME280;4552;43.422;24.592;2022-07-01T02:43:07;99716.88;;;21.00;84.10
9035;BME280;4552;43.422;24.592;2022-07-01T02:45:34;99697.47;;;20.98;84.08
9035;BME280;4552;43.422;24.592;2022-07-01T02:48:03;99719.34;;;21.17;83.07
9035;BME280;4552;43.422;24.592;2022-07-01T02:50:31;99719.72;;;21.11;82.97
9035;BME280;4552;43.422;24.592;2022-07-01T02:52:58;99736.06;;;21.05;84.03
9035;BME280;4552;43.422;24.592;2022-07-01T02:55:25;99696.78;;;20.79;84.32
9035;BME280;4552;43.422;24.592;2022-07-01T02:57:54;99723.81;;;21.02;84.98
9035;BME280;4552;43.422;24.592;2022-07-01T03:00:22;99736.06;;;21.05;85.39
9035;BME280;4552;43.422;24.592;2022-07-01T03:02:49;99708.63;;;20.89;85.86
9035;BME280;4552;43.422;24.592;2022-07-01T03:05:18;99720.47;;;20.99;84.47
9035;BME280;4552;43.422;24.592;2022-07-01T03:07:46;99729.91;;;21.04;84.64
9035;BME280;4552;43.422;24.592;2022-07-01T03:10:13;99733.03;;;21.11;84.73
9035;BME280;4552;43.422;24.592;2022-07-01T03:12:41;99718.84;;;20.96;85.24
9035;BME280;4552;43.422;24.592;2022-07-01T03:15:09;99736.94;;;21.05;83.99
9035;BME280;4552;43.422;24.592;2022-07-01T03:17:39;99741.03;;;21.11;85.46
9035;BME280;4552;43.422;24.592;2022-07-01T03:20:08;99729.81;;;21.06;84.22
9035;BME280;4552;43.422;24.592;2022-07-01T03:22:38;99737.44;;;21.12;82.54
9035;BME280;4552;43.422;24.592;2022-07-01T03:25:06;99747.41;;;21.52;82.08
9035;BME280;4552;43.422;24.592;2022-07-01T03:27:34;99716.78;;;21.15;81.94
9035;BME280;4552;43.422;24.592;2022-07-01T03:30:03;99744.53;;;21.41;82.73
9035;BME280;4552;43.422;24.592;2022-07-01T03:32:31;99741.66;;;21.30;83.65
9035;BME280;4552;43.422;24.592;2022-07-01T03:34:59;99743.75;;;21.39;84.49
9035;BME280;4552;43.422;24.592;2022-07-01T03:37:47;99745.88;;;21.62;83.76
9035;BME280;4552;43.422;24.592;2022-07-01T03:40:14;99741.97;;;21.67;83.47
9035;BME280;4552;43.422;24.592;2022-07-01T03:42:41;99730.91;;;21.73;81.83
9035;BME280;4552;43.422;24.592;2022-07-01T03:45:09;99730.66;;;21.78;81.95
9035;BME280;4552;43.422;24.592;2022-07-01T03:47:37;99747.41;;;21.94;81.78
9035;BME280;4552;43.422;24.592;2022-07-01T03:50:07;99746.25;;;21.98;81.96
9035;BME280;4552;43.422;24.592;2022-07-01T03:52:34;99742.09;;;21.94;82.73
9035;BME280;4552;43.422;24.592;2022-07-01T03:55:03;99735.56;;;22.26;80.56
9035;BME280;4552;43.422;24.592;2022-07-01T03:57:29;99752.28;;;22.42;80.38
9035;BME280;4552;43.422;24.592;2022-07-01T03:59:56;99748.94;;;22.79;78.60
9035;BME280;4552;43.422;24.592;2022-07-01T04:02:25;99748.03;;;22.93;78.11
9035;BME280;4552;43.422;24.592;2022-07-01T04:04:52;99761.50;;;23.93;74.45
9035;BME280;4552;43.422;24.592;2022-07-01T04:07:20;99755.63;;;24.13;71.97
9035;BME280;4552;43.422;24.592;2022-07-01T04:09:48;99763.72;;;24.24;70.83
9035;BME280;4552;43.422;24.592;2022-07-01T04:12:20;99764.53;;;24.50;70.43
9035;BME280;4552;43.422;24.592;2022-07-01T04:14:48;99761.88;;;24.61;70.08
9035;BME280;4552;43.422;24.592;2022-07-01T04:17:15;99764.00;;;24.45;69.28
9035;BME280;4552;43.422;24.592;2022-07-01T04:19:42;99775.28;;;24.61;68.38
9035;BME280;4552;43.422;24.592;2022-07-01T04:22:10;99769.44;;;24.56;67.17
9035;BME280;4552;43.422;24.592;2022-07-01T04:24:54;99770.94;;;26.09;63.38
9035;BME280;4552;43.422;24.592;2022-07-01T04:27:22;99776.13;;;27.61;57.17
9035;BME280;4552;43.422;24.592;2022-07-01T04:29:49;99756.72;;;28.08;55.72
9035;BME280;4552;43.422;24.592;2022-07-01T04:32:16;99775.69;;;29.43;50.58
9035;BME280;4552;43.422;24.592;2022-07-01T04:34:44;99792.47;;;30.11;49.40
9035;BME280;4552;43.422;24.592;2022-07-01T04:37:12;99799.00;;;30.55;47.36
9035;BME280;4552;43.422;24.592;2022-07-01T04:39:39;99802.78;;;31.34;46.49
9035;BME280;4552;43.422;24.592;2022-07-01T04:42:06;99791.41;;;31.48;45.55
9035;BME280;4552;43.422;24.592;2022-07-01T04:44:37;99792.00;;;31.07;44.83
9035;BME280;4552;43.422;24.592;2022-07-01T04:47:04;99803.78;;;31.76;44.18
9035;BME280;4552;43.422;24.592;2022-07-01T04:49:31;99791.47;;;31.56;44.24
9035;BME280;4552;43.422;24.592;2022-07-01T04:51:59;99802.59;;;32.22;43.34
9035;BME280;4552;43.422;24.592;2022-07-01T04:54:26;99801.75;;;32.55;41.47
9035;BME280;4552;43.422;24.592;2022-07-01T04:56:54;99819.34;;;32.84;41.07
9035;BME280;4552;43.422;24.592;2022-07-01T04:59:22;99816.16;;;32.22;42.10
9035;BME280;4552;43.422;24.592;2022-07-01T05:01:56;99796.41;;;31.43;43.92
9035;BME280;4552;43.422;24.592;2022-07-01T05:04:24;99809.38;;;30.60;44.55
9035;BME280;4552;43.422;24.592;2022-07-01T05:06:51;99805.00;;;30.49;45.30
9035;BME280;4552;43.422;24.592;2022-07-01T05:09:18;99807.25;;;29.71;47.43
9035;BME280;4552;43.422;24.592;2022-07-01T05:11:47;99804.75;;;30.43;46.41
9035;BME280;4552;43.422;24.592;2022-07-01T05:14:14;99797.03;;;31.54;44.54
9035;BME280;4552;43.422;24.592;2022-07-01T05:16:41;99806.78;;;32.16;42.50
9035;BME280;4552;43.422;24.592;2022-07-01T05:19:09;99804.84;;;32.34;42.32
9035;BME280;4552;43.422;24.592;2022-07-01T05:21:53;99819.03;;;32.87;41.38
9035;BME280;4552;43.422;24.592;2022-07-01T05:24:29;99788.94;;;31.80;43.26
9035;BME280;4552;43.422;24.592;2022-07-01T05:26:57;99822.84;;;33.34;40.40
9035;BME280;4552;43.422;24.592;2022-07-01T05:29:25;99810.34;;;33.50;41.31
9035;BME280;4552;43.422;24.592;2022-07-01T05:31:52;99817.19;;;32.54;41.64
9035;BME280;4552;43.422;24.592;2022-07-01T05:34:21;99822.72;;;33.60;40.81
9035;BME280;4552;43.422;24.592;2022-07-01T05:36:48;99809.97;;;32.12;42.47
9035;BME280;4552;43.422;24.592;2022-07-01T05:39:15;99799.66;;;32.82;41.07
9035;BME280;4552;43.422;24.592;2022-07-01T05:41:42;99819.13;;;33.35;40.21
9035;BME280;4552;43.422;24.592;2022-07-01T05:44:10;99825.16;;;32.97;40.76
9035;BME280;4552;43.422;24.592;2022-07-01T05:46:38;99820.50;;;32.40;42.32
9035;BME280;4552;43.422;24.592;2022-07-01T05:49:05;99820.81;;;32.37;42.49
9035;BME280;4552;43.422;24.592;2022-07-01T05:51:33;99807.44;;;32.77;41.17
9035;BME280;4552;43.422;24.592;2022-07-01T05:54:00;99820.81;;;32.37;42.32
9035;BME280;4552;43.422;24.592;2022-07-01T05:56:27;99835.56;;;33.18;41.41
9035;BME280;4552;43.422;24.592;2022-07-01T05:58:54;99833.75;;;33.83;39.42
9035;BME280;4552;43.422;24.592;2022-07-01T06:01:22;99831.13;;;33.17;40.59
9035;BME280;4552;43.422;24.592;2022-07-01T06:03:50;99831.41;;;31.79;43.53
9035;BME280;4552;43.422;24.592;2022-07-01T06:06:17;99814.56;;;31.85;43.28
9035;BME280;4552;43.422;24.592;2022-07-01T06:08:47;99810.25;;;32.34;43.21
9035;BME280;4552;43.422;24.592;2022-07-01T06:11:14;99837.31;;;33.75;40.61
9035;BME280;4552;43.422;24.592;2022-07-01T06:13:41;99825.38;;;33.20;41.24
9035;BME280;4552;43.422;24.592;2022-07-01T06:16:08;99825.50;;;32.27;43.15
9035;BME280;4552;43.422;24.592;2022-07-01T06:18:36;99838.81;;;32.38;43.19
9035;BME280;4552;43.422;24.592;2022-07-01T06:21:03;99817.88;;;31.09;45.62
9035;BME280;4552;43.422;24.592;2022-07-01T06:23:30;99830.72;;;31.25;46.29
9035;BME280;4552;43.422;24.592;2022-07-01T06:26:00;99835.97;;;31.09;45.73
9035;BME280;4552;43.422;24.592;2022-07-01T06:28:27;99829.56;;;30.28;48.45
9035;BME280;4552;43.422;24.592;2022-07-01T06:30:56;99810.03;;;29.88;48.55
9035;BME280;4552;43.422;24.592;2022-07-01T06:33:23;99834.59;;;29.95;49.79
9035;BME280;4552;43.422;24.592;2022-07-01T06:35:50;99831.94;;;29.47;49.98
9035;BME280;4552;43.422;24.592;2022-07-01T06:38:18;99826.97;;;29.43;50.82
9035;BME280;4552;43.422;24.592;2022-07-01T06:40:44;99825.69;;;29.75;50.81
9035;BME280;4552;43.422;24.592;2022-07-01T06:43:35;99826.25;;;29.50;50.94
9035;BME280;4552;43.422;24.592;2022-07-01T06:46:02;99814.34;;;29.43;51.61
9035;BME280;4552;43.422;24.592;2022-07-01T06:48:30;99830.53;;;29.43;51.01
9035;BME280;4552;43.422;24.592;2022-07-01T06:50:58;99826.25;;;29.50;51.79
9035;BME280;4552;43.422;24.592;2022-07-01T06:53:25;99812.63;;;29.42;50.22
9035;BME280;4552;43.422;24.592;2022-07-01T06:55:52;99833.94;;;29.36;51.17
9035;BME280;4552;43.422;24.592;2022-07-01T06:58:20;99825.38;;;29.59;50.34
9035;BME280;4552;43.422;24.592;2022-07-01T07:00:48;99831.25;;;29.64;50.05
9035;BME280;4552;43.422;24.592;2022-07-01T07:03:16;99833.13;;;30.10;49.14
9035;BME280;4552;43.422;24.592;2022-07-01T07:05:45;99834.47;;;30.43;49.25
9035;BME280;4552;43.422;24.592;2022-07-01T07:08:12;99816.16;;;30.37;50.25
9035;BME280;4552;43.422;24.592;2022-07-01T07:10:42;99834.78;;;30.76;47.68
9035;BME280;4552;43.422;24.592;2022-07-01T07:13:09;99843.25;;;31.26;46.17
9035;BME280;4552;43.422;24.592;2022-07-01T07:15:37;99830.19;;;31.56;44.90
9035;BME280;4552;43.422;24.592;2022-07-01T07:18:08;99842.41;;;31.96;44.77
9035;BME280;4552;43.422;24.592;2022-07-01T07:20:37;99836.25;;;31.33;45.60
9035;BME280;4552;43.422;24.592;2022-07-01T07:23:05;99826.66;;;31.56;45.04
9035;BME280;4552;43.422;24.592;2022-07-01T07:25:34;99831.13;;;32.08;44.17
9035;BME280;4552;43.422;24.592;2022-07-01T07:28:01;99821.84;;;31.67;45.01
9035;BME280;4552;43.422;24.592;2022-07-01T07:30:28;99823.06;;;31.91;44.61
9035;BME280;4552;43.422;24.592;2022-07-01T07:32:55;99827.34;;;31.58;43.77
9035;BME280;4552;43.422;24.592;2022-07-01T07:35:24;99825.03;;;32.06;43.48
9035;BME280;4552;43.422;24.592;2022-07-01T07:37:52;99836.91;;;32.13;43.23
9035;BME280;4552;43.422;24.592;2022-07-01T07:40:22;99829.44;;;32.07;44.51
9035;BME280;4552;43.422;24.592;2022-07-01T07:42:49;99834.22;;;32.13;44.13
9035;BME280;4552;43.422;24.592;2022-07-01T07:45:17;99846.78;;;32.14;43.80
9035;BME280;4552;43.422;24.592;2022-07-01T07:47:46;99840.22;;;32.25;43.18
9035;BME280;4552;43.422;24.592;2022-07-01T07:50:14;99846.03;;;32.63;42.26
9035;BME280;4552;43.422;24.592;2022-07-01T07:52:44;99841.03;;;32.17;41.86
9035;BME280;4552;43.422;24.592;2022-07-01T07:55:12;99851.75;;;32.52;41.87
9035;BME280;4552;43.422;24.592;2022-07-01T07:57:40;99852.47;;;32.62;41.59
9035;BME280;4552;43.422;24.592;2022-07-01T08:00:10;99849.63;;;32.13;40.97
9035;BME280;4552;43.422;24.592;2022-07-01T08:02:41;99856.22;;;32.61;40.58
9035;BME280;4552;43.422;24.592;2022-07-01T08:05:09;99846.78;;;32.40;42.54
9035;BME280;4552;43.422;24.592;2022-07-01T08:07:37;99842.63;;;32.28;42.51
9035;BME280;4552;43.422;24.592;2022-07-01T08:10:08;99849.38;;;32.49;42.16
9035;BME280;4552;43.422;24.592;2022-07-01T08:12:35;99851.53;;;32.79;41.48
9035;BME280;4552;43.422;24.592;2022-07-01T08:15:04;99858.50;;;32.48;40.15
9035;BME280;4552;43.422;24.592;2022-07-01T08:17:31;99870.47;;;32.71;40.46
9035;BME280;4552;43.422;24.592;2022-07-01T08:19:58;99869.78;;;32.69;40.60
9035;BME280;4552;43.422;24.592;2022-07-01T08:22:26;99865.22;;;32.70;41.26
9035;BME280;4552;43.422;24.592;2022-07-01T08:24:53;99865.78;;;33.31;40.92
9035;BME280;4552;43.422;24.592;2022-07-01T08:27:22;99865.97;;;33.37;39.35
9035;BME280;4552;43.422;24.592;2022-07-01T08:29:49;99874.41;;;33.10;39.42
9035;BME280;4552;43.422;24.592;2022-07-01T08:32:16;99859.56;;;32.55;39.65
9035;BME280;4552;43.422;24.592;2022-07-01T08:34:43;99849.28;;;31.90;41.27
9035;BME280;4552;43.422;24.592;2022-07-01T08:37:11;99860.56;;;32.03;41.21
9035;BME280;4552;43.422;24.592;2022-07-01T08:39:38;99858.44;;;31.89;41.41
9035;BME280;4552;43.422;24.592;2022-07-01T08:42:07;99860.88;;;32.43;40.09
9035;BME280;4552;43.422;24.592;2022-07-01T08:44:36;99861.03;;;32.83;39.80
9035;BME280;4552;43.422;24.592;2022-07-01T08:47:03;99860.09;;;33.00;39.42
9035;BME280;4552;43.422;24.592;2022-07-01T08:49:31;99867.97;;;33.19;39.30
9035;BME280;4552;43.422;24.592;2022-07-01T08:51:58;99853.38;;;33.20;39.76
9035;BME280;4552;43.422;24.592;2022-07-01T08:54:26;99859.47;;;33.14;39.29
9035;BME280;4552;43.422;24.592;2022-07-01T08:56:53;99860.09;;;33.00;39.49
9035;BME280;4552;43.422;24.592;2022-07-01T08:59:24;99854.03;;;33.14;39.84
9035;BME280;4552;43.422;24.592;2022-07-01T09:01:58;99853.31;;;33.04;39.04
9035;BME280;4552;43.422;24.592;2022-07-01T09:04:26;99843.88;;;33.32;38.71
9035;BME280;4552;43.422;24.592;2022-07-01T09:07:01;99858.75;;;33.94;38.10
9035;BME280;4552;43.422;24.592;2022-07-01T09:09:28;99859.56;;;34.19;38.43
9035;BME280;4552;43.422;24.592;2022-07-01T09:11:56;99856.81;;;33.38;38.01
9035;BME280;4552;43.422;24.592;2022-07-01T09:14:24;99849.56;;;33.63;37.86
9035;BME280;4552;43.422;24.592;2022-07-01T09:16:53;99850.72;;;33.85;37.33
9035;BME280;4552;43.422;24.592;2022-07-01T09:19:22;99840.53;;;33.38;38.27
9035;BME280;4552;43.422;24.592;2022-07-01T09:21:51;99855.13;;;34.18;38.52
9035;BME280;4552;43.422;24.592;2022-07-01T09:24:29;99849.66;;;34.34;37.64
9035;BME280;4552;43.422;24.592;2022-07-01T09:26:59;99855.81;;;34.20;37.26
9035;BME280;4552;43.422;24.592;2022-07-01T09:29:28;99842.09;;;33.89;35.91
9035;BME280;4552;43.422;24.592;2022-07-01T09:31:57;99827.31;;;33.60;36.81
9035;BME280;4552;43.422;24.592;2022-07-01T09:34:26;99821.34;;;33.40;36.94
9035;BME280;4552;43.422;24.592;2022-07-01T09:36:55;99832.75;;;33.68;37.15
9035;BME280;4552;43.422;24.592;2022-07-01T09:39:23;99814.41;;;33.62;37.74
9035;BME280;4552;43.422;24.592;2022-07-01T09:41:54;99840.88;;;34.16;37.92
9035;BME280;4552;43.422;24.592;2022-07-01T09:44:21;99836.75;;;34.36;37.33
9035;BME280;4552;43.422;24.592;2022-07-01T09:46:54;99828.69;;;34.04;36.50
9035;BME280;4552;43.422;24.592;2022-07-01T09:49:21;99833.75;;;33.83;36.54
9035;BME280;4552;43.422;24.592;2022-07-01T09:51:52;99825.91;;;34.28;35.54
9035;BME280;4552;43.422;24.592;2022-07-01T09:54:20;99815.00;;;34.36;36.22
9035;BME280;4552;43.422;24.592;2022-07-01T09:56:48;99829.06;;;34.55;35.45
9035;BME280;4552;43.422;24.592;2022-07-01T09:59:15;99797.38;;;34.16;35.52
9035;BME280;4552;43.422;24.592;2022-07-01T10:01:43;99818.72;;;34.51;36.08
9035;BME280;4552;43.422;24.592;2022-07-01T10:04:14;99811.41;;;34.82;35.39
9035;BME280;4552;43.422;24.592;2022-07-01T10:06:58;99816.56;;;34.77;35.38
9035;BME280;4552;43.422;24.592;2022-07-01T10:09:47;99789.63;;;34.82;35.67
9035;BME280;4552;43.422;24.592;2022-07-01T10:12:33;99804.78;;;34.30;34.08
9035;BME280;4552;43.422;24.592;2022-07-01T10:15:02;99800.75;;;34.18;34.73
9035;BME280;4552;43.422;24.592;2022-07-01T10:17:35;99792.59;;;34.18;35.13
9035;BME280;4552;43.422;24.592;2022-07-01T10:20:08;99787.22;;;33.94;34.67
9035;BME280;4552;43.422;24.592;2022-07-01T10:22:38;99808.44;;;34.06;34.91
9035;BME280;4552;43.422;24.592;2022-07-01T10:25:32;99800.81;;;34.02;35.29
9035;BME280;4552;43.422;24.592;2022-07-01T10:28:13;99788.06;;;33.86;35.12
9035;BME280;4552;43.422;24.592;2022-07-01T10:30:52;99783.03;;;34.30;34.05
9035;BME280;4552;43.422;24.592;2022-07-01T10:33:33;99781.00;;;34.40;34.14
9035;BME280;4552;43.422;24.592;2022-07-01T10:36:05;99767.69;;;34.53;34.14
9035;BME280;4552;43.422;24.592;2022-07-01T10:38:35;99778.00;;;34.65;33.68
9035;BME280;4552;43.422;24.592;2022-07-01T10:41:23;99765.13;;;34.51;33.91
9035;BME280;4552;43.422;24.592;2022-07-01T10:43:53;99776.38;;;34.87;34.83
9035;BME280;4552;43.422;24.592;2022-07-01T10:46:37;99757.44;;;34.63;34.03
9035;BME280;4552;43.422;24.592;2022-07-01T10:49:06;99774.69;;;34.47;34.09
9035;BME280;4552;43.422;24.592;2022-07-01T10:51:47;99774.22;;;34.36;33.07
9035;BME280;4552;43.422;24.592;2022-07-01T10:54:47;99781.25;;;35.22;32.90
9035;BME280;4552;43.422;24.592;2022-07-01T10:57:25;99758.50;;;34.84;32.76
9035;BME280;4552;43.422;24.592;2022-07-01T10:59:54;99770.56;;;34.90;32.98
9035;BME280;4552;43.422;24.592;2022-07-01T11:02:22;99770.22;;;34.85;33.67
9035;BME280;4552;43.422;24.592;2022-07-01T11:04:52;99755.38;;;34.95;34.14
9035;BME280;4552;43.422;24.592;2022-07-01T11:07:19;99751.44;;;35.06;33.91
9035;BME280;4552;43.422;24.592;2022-07-01T11:09:48;99752.22;;;34.84;34.48
9035;BME280;4552;43.422;24.592;2022-07-01T11:12:15;99750.38;;;35.07;34.10
9035;BME280;4552;43.422;24.592;2022-07-01T11:14:43;99749.59;;;34.68;32.14
9035;BME280;4552;43.422;24.592;2022-07-01T11:17:10;99738.31;;;34.48;31.50
9035;BME280;4552;43.422;24.592;2022-07-01T11:19:37;99746.00;;;34.45;31.93
9035;BME280;4552;43.422;24.592;2022-07-01T11:22:05;99741.09;;;34.71;31.48
9035;BME280;4552;43.422;24.592;2022-07-01T11:24:33;99728.31;;;34.71;31.82
9035;BME280;4552;43.422;24.592;2022-07-01T11:27:06;99747.75;;;34.60;31.00
9035;BME280;4552;43.422;24.592;2022-07-01T11:29:34;99740.91;;;34.34;30.84
9035;BME280;4552;43.422;24.592;2022-07-01T11:32:01;99749.06;;;34.42;31.78
9035;BME280;4552;43.422;24.592;2022-07-01T11:34:28;99746.63;;;34.47;30.52
9035;BME280;4552;43.422;24.592;2022-07-01T11:36:56;99738.88;;;34.36;30.92
9035;BME280;4552;43.422;24.592;2022-07-01T11:39:40;99739.56;;;34.68;30.23
9035;BME280;4552;43.422;24.592;2022-07-01T11:42:10;99741.94;;;34.63;30.32
9035;BME280;4552;43.422;24.592;2022-07-01T11:44:40;99738.28;;;34.87;30.17
9035;BME280;4552;43.422;24.592;2022-07-01T11:47:09;99722.47;;;34.52;29.93
9035;BME280;4552;43.422;24.592;2022-07-01T11:49:43;99726.06;;;35.06;30.54
9035;BME280;4552;43.422;24.592;2022-07-01T11:52:12;99730.66;;;35.05;30.77
9035;BME280;4552;43.422;24.592;2022-07-01T11:54:40;99725.84;;;35.15;31.24
9035;BME280;4552;43.422;24.592;2022-07-01T11:57:10;99722.56;;;35.20;29.78
9035;BME280;4552;43.422;24.592;2022-07-01T11:59:37;99725.22;;;35.50;29.97
9035;BME280;4552;43.422;24.592;2022-07-01T12:02:06;99709.59;;;35.44;30.42
9035;BME280;4552;43.422;24.592;2022-07-01T12:04:33;99709.13;;;35.18;29.92
9035;BME280;4552;43.422;24.592;2022-07-01T12:07:00;99687.91;;;35.51;29.68
9035;BME280;4552;43.422;24.592;2022-07-01T12:09:28;99705.72;;;35.90;30.45
9035;BME280;4552;43.422;24.592;2022-07-01T12:11:55;99683.59;;;35.19;28.09
9035;BME280;4552;43.422;24.592;2022-07-01T12:14:25;99694.88;;;34.93;29.46
9035;BME280;4552;43.422;24.592;2022-07-01T12:16:54;99685.47;;;34.96;29.07
9035;BME280;4552;43.422;24.592;2022-07-01T12:19:26;99685.34;;;34.89;29.41
9035;BME280;4552;43.422;24.592;2022-07-01T12:21:56;99689.91;;;35.71;29.03
9035;BME280;4552;43.422;24.592;2022-07-01T12:24:25;99688.78;;;35.80;28.00
9035;BME280;4552;43.422;24.592;2022-07-01T12:26:53;99689.75;;;35.36;28.49
9035;BME280;4552;43.422;24.592;2022-07-01T12:29:21;99690.56;;;34.99;28.82
9035;BME280;4552;43.422;24.592;2022-07-01T12:32:00;99677.06;;;34.83;29.26
9035;BME280;4552;43.422;24.592;2022-07-01T12:34:39;99678.72;;;35.29;29.26
9035;BME280;4552;43.422;24.592;2022-07-01T12:37:12;99669.03;;;35.12;28.76
9035;BME280;4552;43.422;24.592;2022-07-01T12:40:07;99682.25;;;35.38;28.73
9035;BME280;4552;43.422;24.592;2022-07-01T12:42:36;99673.03;;;35.02;28.76
9035;BME280;4552;43.422;24.592;2022-07-01T12:45:06;99686.72;;;35.31;29.23
9035;BME280;4552;43.422;24.592;2022-07-01T12:47:37;99656.78;;;35.08;29.59
9035;BME280;4552;43.422;24.592;2022-07-01T12:50:16;99679.97;;;34.81;29.23
9035;BME280;4552;43.422;24.592;2022-07-01T12:52:57;99649.41;;;34.94;29.18
9035;BME280;4552;43.422;24.592;2022-07-01T12:55:24;99665.56;;;35.18;29.96
9035;BME280;4552;43.422;24.592;2022-07-01T12:58:03;99653.38;;;34.91;29.58
9035;BME280;4552;43.422;24.592;2022-07-01T13:00:31;99660.97;;;34.96;29.16
9035;BME280;4552;43.422;24.592;2022-07-01T13:03:07;99657.03;;;35.21;29.94
9035;BME280;4552;43.422;24.592;2022-07-01T13:05:37;99647.31;;;35.04;29.97
9035;BME280;4552;43.422;24.592;2022-07-01T13:08:06;99640.56;;;35.00;30.45
9035;BME280;4552;43.422;24.592;2022-07-01T13:10:34;99652.38;;;35.07;31.05
9035;BME280;4552;43.422;24.592;2022-07-01T13:13:01;99648.75;;;35.15;30.14
9035;BME280;4552;43.422;24.592;2022-07-01T13:15:29;99634.13;;;34.93;30.85
9035;BME280;4552;43.422;24.592;2022-07-01T13:17:56;99640.63;;;34.92;30.40
9035;BME280;4552;43.422;24.592;2022-07-01T13:20:25;99656.94;;;34.92;31.28